This is the latest recevied weather packets stored in our database for station/object K0QED. If no packets are shown the sender has not sent any weather packets the latest 10 day(s).
| Time | Temp. | Humidity | Pressure | Rain* | Wind** | Luminosity | Snow |
|---|---|---|---|---|---|---|---|
| 1777813539 | 9.44° C | 40% | 1022.1 hPa | 0 mm | - | 49 W/m² | - |
| 1777813238 | 8.89° C | 42% | 1022.4 hPa | 0 mm | - | 43 W/m² | - |
| 1777812935 | 8.89° C | 41% | 1022 hPa | 0 mm | - | 39 W/m² | - |
| 1777812632 | 8.89° C | 41% | 1021.7 hPa | 0 mm | - | 37 W/m² | - |
| 1777812328 | 8.89° C | 42% | 1021.9 hPa | 0 mm | - | 35 W/m² | - |
| 1777812027 | 8.89° C | 41% | 1021.9 hPa | 0 mm | - | 31 W/m² | - |
| 1777811725 | 8.33° C | 40% | 1021.9 hPa | 0 mm | - | 28 W/m² | - |
| 1777811421 | 8.33° C | 41% | 1021.9 hPa | 0 mm | - | 24 W/m² | - |
| 1777811118 | 8.33° C | 41% | 1021.9 hPa | 0 mm | - | 20 W/m² | - |
| 1777810815 | 7.78° C | 41% | 1021.6 hPa | 0 mm | - | 15 W/m² | - |
| 1777810512 | 7.22° C | 42% | 1021.7 hPa | 0 mm | - | 10 W/m² | - |
| 1777810209 | 6.67° C | 44% | 1021.6 hPa | 0 mm | - | 6 W/m² | - |
| 1777809905 | 6.67° C | 45% | 1021.2 hPa | 0 mm | - | 3 W/m² | - |
| 1777809603 | 6.11° C | 46% | 1021.1 hPa | 0 mm | - | 2 W/m² | - |
| 1777809300 | 5.56° C | 47% | 1021.5 hPa | 0 mm | - | 0 W/m² | - |
| 1777808998 | 6.11° C | 49% | 1021.2 hPa | 0 mm | - | 0 W/m² | - |
| 1777808695 | 6.11° C | 46% | 1020.9 hPa | 0 mm | - | 0 W/m² | - |
| 1777808391 | 6.11° C | 47% | 1021.1 hPa | 0 mm | - | 0 W/m² | - |
| 1777808090 | 6.11° C | 45% | 1021.1 hPa | 0 mm | - | 0 W/m² | - |
| 1777807787 | 6.67° C | 46% | 1021.1 hPa | 0 mm | - | 0 W/m² | - |
| 1777807485 | 6.67° C | 43% | 1021 hPa | 0 mm | - | 0 W/m² | - |
| 1777807181 | 7.22° C | 45% | 1021.2 hPa | 0 mm | - | 0 W/m² | - |
| 1777806878 | 7.22° C | 42% | 1021.4 hPa | 0 mm | - | 0 W/m² | - |
| 1777806574 | 7.22° C | 43% | 1021.2 hPa | 0 mm | - | 0 W/m² | - |
| 1777806270 | 7.22° C | 42% | 1021.4 hPa | 0 mm | - | 0 W/m² | - |
* Rain latest hour (hover to see other rain measurements)
** Current wind speed in m/s (hover to see current wind gust speed)